sensor_id;sensor_type;location;lat;lon;timestamp;P1;durP1;ratioP1;P2;durP2;ratioP2
72791;SDS011;60907;53.268;8.764;2023-05-20T00:01:55;3.17;;;0.93;;
72791;SDS011;60907;53.268;8.764;2023-05-20T00:04:21;2.05;;;0.90;;
72791;SDS011;60907;53.268;8.764;2023-05-20T00:06:46;2.75;;;0.80;;
72791;SDS011;60907;53.268;8.764;2023-05-20T00:09:12;2.22;;;0.75;;
72791;SDS011;60907;53.268;8.764;2023-05-20T00:11:37;4.55;;;0.85;;
72791;SDS011;60907;53.268;8.764;2023-05-20T00:14:03;2.08;;;0.85;;
72791;SDS011;60907;53.268;8.764;2023-05-20T00:16:28;1.45;;;0.80;;
72791;SDS011;60907;53.268;8.764;2023-05-20T00:18:53;2.00;;;0.80;;
72791;SDS011;60907;53.268;8.764;2023-05-20T00:21:20;2.05;;;0.93;;
72791;SDS011;60907;53.268;8.764;2023-05-20T00:23:46;1.90;;;0.68;;
72791;SDS011;60907;53.268;8.764;2023-05-20T00:26:11;1.55;;;0.77;;
72791;SDS011;60907;53.268;8.764;2023-05-20T00:28:37;3.53;;;0.70;;
72791;SDS011;60907;53.268;8.764;2023-05-20T00:31:02;1.73;;;0.60;;
72791;SDS011;60907;53.268;8.764;2023-05-20T00:33:28;3.15;;;0.65;;
72791;SDS011;60907;53.268;8.764;2023-05-20T00:35:54;3.20;;;0.73;;
72791;SDS011;60907;53.268;8.764;2023-05-20T00:38:19;1.67;;;0.70;;
72791;SDS011;60907;53.268;8.764;2023-05-20T00:40:45;1.98;;;0.63;;
72791;SDS011;60907;53.268;8.764;2023-05-20T00:43:10;1.20;;;0.50;;
72791;SDS011;60907;53.268;8.764;2023-05-20T00:45:36;4.05;;;0.95;;
72791;SDS011;60907;53.268;8.764;2023-05-20T00:48:02;2.80;;;0.63;;
72791;SDS011;60907;53.268;8.764;2023-05-20T00:50:28;7.38;;;1.15;;
72791;SDS011;60907;53.268;8.764;2023-05-20T00:52:53;2.15;;;1.02;;
72791;SDS011;60907;53.268;8.764;2023-05-20T00:55:19;2.13;;;0.63;;
72791;SDS011;60907;53.268;8.764;2023-05-20T00:57:45;1.33;;;0.68;;
72791;SDS011;60907;53.268;8.764;2023-05-20T01:00:12;3.40;;;0.85;;
72791;SDS011;60907;53.268;8.764;2023-05-20T01:02:38;1.67;;;0.30;;
72791;SDS011;60907;53.268;8.764;2023-05-20T01:05:03;1.10;;;0.45;;
72791;SDS011;60907;53.268;8.764;2023-05-20T01:07:29;1.00;;;0.75;;
72791;SDS011;60907;53.268;8.764;2023-05-20T01:09:55;1.52;;;0.68;;
72791;SDS011;60907;53.268;8.764;2023-05-20T01:14:49;1.37;;;0.53;;
72791;SDS011;60907;53.268;8.764;2023-05-20T01:17:20;0.93;;;0.50;;
72791;SDS011;60907;53.268;8.764;2023-05-20T01:19:50;1.13;;;0.50;;
72791;SDS011;60907;53.268;8.764;2023-05-20T01:22:17;1.10;;;0.55;;
72791;SDS011;60907;53.268;8.764;2023-05-20T01:24:43;1.00;;;0.30;;
72791;SDS011;60907;53.268;8.764;2023-05-20T01:27:12;1.20;;;0.32;;
72791;SDS011;60907;53.268;8.764;2023-05-20T01:29:38;1.80;;;0.70;;
72791;SDS011;60907;53.268;8.764;2023-05-20T01:32:14;1.92;;;0.60;;
72791;SDS011;60907;53.268;8.764;2023-05-20T01:34:58;1.80;;;0.57;;
72791;SDS011;60907;53.268;8.764;2023-05-20T01:37:25;1.90;;;0.60;;
72791;SDS011;60907;53.268;8.764;2023-05-20T01:39:51;2.03;;;0.68;;
72791;SDS011;60907;53.268;8.764;2023-05-20T01:42:17;1.65;;;0.88;;
72791;SDS011;60907;53.268;8.764;2023-05-20T01:44:44;2.25;;;0.82;;
72791;SDS011;60907;53.268;8.764;2023-05-20T01:47:09;1.60;;;0.82;;
72791;SDS011;60907;53.268;8.764;2023-05-20T01:49:35;1.30;;;0.70;;
72791;SDS011;60907;53.268;8.764;2023-05-20T01:52:00;2.30;;;0.60;;
72791;SDS011;60907;53.268;8.764;2023-05-20T01:54:25;0.90;;;0.43;;
72791;SDS011;60907;53.268;8.764;2023-05-20T01:56:51;0.93;;;0.52;;
72791;SDS011;60907;53.268;8.764;2023-05-20T01:59:16;2.35;;;0.52;;
72791;SDS011;60907;53.268;8.764;2023-05-20T02:01:42;2.42;;;0.60;;
72791;SDS011;60907;53.268;8.764;2023-05-20T02:04:07;2.90;;;0.60;;
72791;SDS011;60907;53.268;8.764;2023-05-20T02:06:33;2.05;;;0.70;;
72791;SDS011;60907;53.268;8.764;2023-05-20T02:08:58;0.85;;;0.52;;
72791;SDS011;60907;53.268;8.764;2023-05-20T02:11:24;1.65;;;0.50;;
72791;SDS011;60907;53.268;8.764;2023-05-20T02:13:50;3.65;;;0.82;;
72791;SDS011;60907;53.268;8.764;2023-05-20T02:16:15;0.88;;;0.38;;
72791;SDS011;60907;53.268;8.764;2023-05-20T02:18:41;1.42;;;0.60;;
72791;SDS011;60907;53.268;8.764;2023-05-20T02:21:08;1.00;;;0.50;;
72791;SDS011;60907;53.268;8.764;2023-05-20T02:23:33;1.63;;;0.47;;
72791;SDS011;60907;53.268;8.764;2023-05-20T02:25:59;2.50;;;0.67;;
72791;SDS011;60907;53.268;8.764;2023-05-20T02:28:25;1.95;;;0.70;;
72791;SDS011;60907;53.268;8.764;2023-05-20T02:30:50;1.83;;;0.70;;
72791;SDS011;60907;53.268;8.764;2023-05-20T02:33:15;1.33;;;0.60;;
72791;SDS011;60907;53.268;8.764;2023-05-20T02:35:41;1.27;;;0.50;;
72791;SDS011;60907;53.268;8.764;2023-05-20T02:38:06;1.30;;;0.40;;
72791;SDS011;60907;53.268;8.764;2023-05-20T02:40:32;1.80;;;0.80;;
72791;SDS011;60907;53.268;8.764;2023-05-20T02:42:58;0.80;;;0.40;;
72791;SDS011;60907;53.268;8.764;2023-05-20T02:45:24;2.25;;;0.57;;
72791;SDS011;60907;53.268;8.764;2023-05-20T02:47:49;1.55;;;0.40;;
72791;SDS011;60907;53.268;8.764;2023-05-20T02:50:15;1.90;;;0.63;;
72791;SDS011;60907;53.268;8.764;2023-05-20T02:52:40;1.20;;;0.52;;
72791;SDS011;60907;53.268;8.764;2023-05-20T02:55:06;1.00;;;0.45;;
72791;SDS011;60907;53.268;8.764;2023-05-20T02:57:32;1.35;;;0.80;;
72791;SDS011;60907;53.268;8.764;2023-05-20T03:00:02;1.73;;;0.43;;
72791;SDS011;60907;53.268;8.764;2023-05-20T03:02:29;1.60;;;0.40;;
72791;SDS011;60907;53.268;8.764;2023-05-20T03:04:55;0.55;;;0.40;;
72791;SDS011;60907;53.268;8.764;2023-05-20T03:07:20;1.10;;;0.50;;
72791;SDS011;60907;53.268;8.764;2023-05-20T03:09:46;1.08;;;0.40;;
72791;SDS011;60907;53.268;8.764;2023-05-20T03:12:12;2.15;;;0.43;;
72791;SDS011;60907;53.268;8.764;2023-05-20T03:14:37;1.33;;;0.60;;
72791;SDS011;60907;53.268;8.764;2023-05-20T03:17:02;1.77;;;0.35;;
72791;SDS011;60907;53.268;8.764;2023-05-20T03:19:28;1.55;;;0.38;;
72791;SDS011;60907;53.268;8.764;2023-05-20T03:21:54;0.65;;;0.43;;
72791;SDS011;60907;53.268;8.764;2023-05-20T03:24:19;1.33;;;0.65;;
72791;SDS011;60907;53.268;8.764;2023-05-20T03:26:47;2.20;;;0.35;;
72791;SDS011;60907;53.268;8.764;2023-05-20T03:29:13;1.23;;;0.30;;
72791;SDS011;60907;53.268;8.764;2023-05-20T03:31:38;1.63;;;0.73;;
72791;SDS011;60907;53.268;8.764;2023-05-20T03:34:03;0.95;;;0.40;;
72791;SDS011;60907;53.268;8.764;2023-05-20T03:36:29;0.85;;;0.50;;
72791;SDS011;60907;53.268;8.764;2023-05-20T03:38:55;2.22;;;0.50;;
72791;SDS011;60907;53.268;8.764;2023-05-20T03:41:20;1.00;;;0.40;;
72791;SDS011;60907;53.268;8.764;2023-05-20T03:43:46;0.65;;;0.52;;
72791;SDS011;60907;53.268;8.764;2023-05-20T03:46:11;0.80;;;0.40;;
72791;SDS011;60907;53.268;8.764;2023-05-20T03:48:37;1.50;;;0.50;;
72791;SDS011;60907;53.268;8.764;2023-05-20T03:51:02;2.63;;;0.60;;
72791;SDS011;60907;53.268;8.764;2023-05-20T03:53:28;1.65;;;0.60;;
72791;SDS011;60907;53.268;8.764;2023-05-20T03:55:53;1.25;;;0.40;;
72791;SDS011;60907;53.268;8.764;2023-05-20T03:58:19;1.75;;;0.40;;
72791;SDS011;60907;53.268;8.764;2023-05-20T04:00:45;1.80;;;0.63;;
72791;SDS011;60907;53.268;8.764;2023-05-20T04:03:11;1.20;;;0.32;;
72791;SDS011;60907;53.268;8.764;2023-05-20T04:05:37;2.03;;;0.43;;
72791;SDS011;60907;53.268;8.764;2023-05-20T04:08:02;1.03;;;0.43;;
72791;SDS011;60907;53.268;8.764;2023-05-20T04:10:29;2.90;;;0.63;;
72791;SDS011;60907;53.268;8.764;2023-05-20T04:12:56;1.02;;;0.50;;
72791;SDS011;60907;53.268;8.764;2023-05-20T04:15:22;1.20;;;0.45;;
72791;SDS011;60907;53.268;8.764;2023-05-20T04:17:48;0.85;;;0.52;;
72791;SDS011;60907;53.268;8.764;2023-05-20T04:20:14;2.10;;;0.47;;
72791;SDS011;60907;53.268;8.764;2023-05-20T04:22:40;1.48;;;0.40;;
72791;SDS011;60907;53.268;8.764;2023-05-20T04:25:05;1.20;;;0.52;;
72791;SDS011;60907;53.268;8.764;2023-05-20T04:27:31;1.77;;;0.57;;
72791;SDS011;60907;53.268;8.764;2023-05-20T04:30:02;2.22;;;0.77;;
72791;SDS011;60907;53.268;8.764;2023-05-20T04:32:28;1.00;;;0.63;;
72791;SDS011;60907;53.268;8.764;2023-05-20T04:34:54;1.63;;;0.70;;
72791;SDS011;60907;53.268;8.764;2023-05-20T04:37:20;1.60;;;0.50;;
72791;SDS011;60907;53.268;8.764;2023-05-20T04:39:46;2.38;;;0.70;;
72791;SDS011;60907;53.268;8.764;2023-05-20T04:42:14;2.20;;;0.70;;
72791;SDS011;60907;53.268;8.764;2023-05-20T04:44:41;1.52;;;0.65;;
72791;SDS011;60907;53.268;8.764;2023-05-20T04:47:10;0.90;;;0.28;;
72791;SDS011;60907;53.268;8.764;2023-05-20T04:49:36;2.90;;;0.68;;
72791;SDS011;60907;53.268;8.764;2023-05-20T04:52:02;2.70;;;0.60;;
72791;SDS011;60907;53.268;8.764;2023-05-20T04:54:28;2.20;;;0.70;;
72791;SDS011;60907;53.268;8.764;2023-05-20T04:56:54;1.77;;;0.68;;
72791;SDS011;60907;53.268;8.764;2023-05-20T04:59:20;3.60;;;0.60;;
72791;SDS011;60907;53.268;8.764;2023-05-20T05:01:46;0.73;;;0.47;;
72791;SDS011;60907;53.268;8.764;2023-05-20T05:04:11;2.15;;;0.80;;
72791;SDS011;60907;53.268;8.764;2023-05-20T05:06:37;2.58;;;0.70;;
72791;SDS011;60907;53.268;8.764;2023-05-20T05:09:03;2.25;;;0.50;;
72791;SDS011;60907;53.268;8.764;2023-05-20T05:11:28;2.38;;;0.65;;
72791;SDS011;60907;53.268;8.764;2023-05-20T05:13:54;2.05;;;0.90;;
72791;SDS011;60907;53.268;8.764;2023-05-20T05:16:20;1.35;;;0.52;;
72791;SDS011;60907;53.268;8.764;2023-05-20T05:18:46;1.73;;;0.75;;
72791;SDS011;60907;53.268;8.764;2023-05-20T05:21:11;2.03;;;0.80;;
72791;SDS011;60907;53.268;8.764;2023-05-20T05:23:37;2.00;;;0.75;;
72791;SDS011;60907;53.268;8.764;2023-05-20T05:26:03;2.15;;;0.73;;
72791;SDS011;60907;53.268;8.764;2023-05-20T05:28:28;2.28;;;0.80;;
72791;SDS011;60907;53.268;8.764;2023-05-20T05:30:54;1.30;;;0.63;;
72791;SDS011;60907;53.268;8.764;2023-05-20T05:33:23;1.30;;;0.63;;
72791;SDS011;60907;53.268;8.764;2023-05-20T05:35:48;1.40;;;0.82;;
72791;SDS011;60907;53.268;8.764;2023-05-20T05:38:14;1.38;;;0.80;;
72791;SDS011;60907;53.268;8.764;2023-05-20T05:40:40;1.38;;;0.50;;
72791;SDS011;60907;53.268;8.764;2023-05-20T05:43:06;2.22;;;0.70;;
72791;SDS011;60907;53.268;8.764;2023-05-20T05:45:31;1.35;;;1.10;;
72791;SDS011;60907;53.268;8.764;2023-05-20T05:47:57;2.60;;;0.70;;
72791;SDS011;60907;53.268;8.764;2023-05-20T05:50:22;2.03;;;0.80;;
72791;SDS011;60907;53.268;8.764;2023-05-20T05:52:48;2.63;;;0.77;;
72791;SDS011;60907;53.268;8.764;2023-05-20T05:55:13;3.03;;;1.13;;
72791;SDS011;60907;53.268;8.764;2023-05-20T05:57:39;2.10;;;0.73;;
72791;SDS011;60907;53.268;8.764;2023-05-20T06:00:04;5.05;;;0.95;;
72791;SDS011;60907;53.268;8.764;2023-05-20T06:02:32;1.77;;;0.65;;
72791;SDS011;60907;53.268;8.764;2023-05-20T06:05:02;2.15;;;0.80;;
72791;SDS011;60907;53.268;8.764;2023-05-20T06:07:28;4.07;;;1.10;;
72791;SDS011;60907;53.268;8.764;2023-05-20T06:09:53;1.75;;;0.90;;
72791;SDS011;60907;53.268;8.764;2023-05-20T06:12:19;1.10;;;0.93;;
72791;SDS011;60907;53.268;8.764;2023-05-20T06:14:44;4.57;;;0.95;;
72791;SDS011;60907;53.268;8.764;2023-05-20T06:17:10;3.40;;;1.00;;
72791;SDS011;60907;53.268;8.764;2023-05-20T06:19:35;2.25;;;0.77;;
72791;SDS011;60907;53.268;8.764;2023-05-20T06:22:01;4.38;;;1.33;;
72791;SDS011;60907;53.268;8.764;2023-05-20T06:24:26;1.23;;;0.52;;
72791;SDS011;60907;53.268;8.764;2023-05-20T06:26:52;1.60;;;0.73;;
72791;SDS011;60907;53.268;8.764;2023-05-20T06:29:17;1.80;;;0.70;;
72791;SDS011;60907;53.268;8.764;2023-05-20T06:31:43;2.72;;;0.82;;
72791;SDS011;60907;53.268;8.764;2023-05-20T06:34:08;4.32;;;1.10;;
72791;SDS011;60907;53.268;8.764;2023-05-20T06:36:34;5.10;;;1.02;;
72791;SDS011;60907;53.268;8.764;2023-05-20T06:38:59;2.78;;;0.98;;
72791;SDS011;60907;53.268;8.764;2023-05-20T06:41:25;2.35;;;1.20;;
72791;SDS011;60907;53.268;8.764;2023-05-20T06:43:51;3.00;;;1.00;;
72791;SDS011;60907;53.268;8.764;2023-05-20T06:46:16;2.85;;;1.05;;
72791;SDS011;60907;53.268;8.764;2023-05-20T06:48:42;3.17;;;1.30;;
72791;SDS011;60907;53.268;8.764;2023-05-20T06:51:08;3.42;;;1.05;;
72791;SDS011;60907;53.268;8.764;2023-05-20T06:53:34;3.25;;;0.85;;
72791;SDS011;60907;53.268;8.764;2023-05-20T06:56:00;2.42;;;1.02;;
72791;SDS011;60907;53.268;8.764;2023-05-20T06:58:26;1.33;;;0.80;;
72791;SDS011;60907;53.268;8.764;2023-05-20T07:00:52;3.10;;;1.10;;
72791;SDS011;60907;53.268;8.764;2023-05-20T07:03:17;3.00;;;1.00;;
72791;SDS011;60907;53.268;8.764;2023-05-20T07:05:43;2.13;;;0.98;;
72791;SDS011;60907;53.268;8.764;2023-05-20T07:08:08;3.65;;;0.82;;
72791;SDS011;60907;53.268;8.764;2023-05-20T07:10:34;2.70;;;0.95;;
72791;SDS011;60907;53.268;8.764;2023-05-20T07:13:00;2.20;;;0.93;;
72791;SDS011;60907;53.268;8.764;2023-05-20T07:15:26;2.03;;;1.00;;
72791;SDS011;60907;53.268;8.764;2023-05-20T07:17:51;3.55;;;1.00;;
72791;SDS011;60907;53.268;8.764;2023-05-20T07:20:17;2.15;;;1.20;;
72791;SDS011;60907;53.268;8.764;2023-05-20T07:22:42;2.25;;;1.35;;
72791;SDS011;60907;53.268;8.764;2023-05-20T07:25:08;3.25;;;1.20;;
72791;SDS011;60907;53.268;8.764;2023-05-20T07:27:34;2.45;;;1.10;;
72791;SDS011;60907;53.268;8.764;2023-05-20T07:30:00;3.20;;;1.17;;
72791;SDS011;60907;53.268;8.764;2023-05-20T07:32:25;3.67;;;1.30;;
72791;SDS011;60907;53.268;8.764;2023-05-20T07:34:51;1.80;;;1.10;;
72791;SDS011;60907;53.268;8.764;2023-05-20T07:37:17;3.95;;;1.13;;
72791;SDS011;60907;53.268;8.764;2023-05-20T07:39:42;3.78;;;1.30;;
72791;SDS011;60907;53.268;8.764;2023-05-20T07:42:08;2.97;;;1.08;;
72791;SDS011;60907;53.268;8.764;2023-05-20T07:44:34;3.88;;;1.20;;
72791;SDS011;60907;53.268;8.764;2023-05-20T07:47:00;2.88;;;1.08;;
72791;SDS011;60907;53.268;8.764;2023-05-20T07:49:25;2.30;;;1.20;;
72791;SDS011;60907;53.268;8.764;2023-05-20T07:51:51;2.70;;;1.30;;
72791;SDS011;60907;53.268;8.764;2023-05-20T07:54:16;3.03;;;1.33;;
72791;SDS011;60907;53.268;8.764;2023-05-20T07:56:42;2.17;;;1.50;;
72791;SDS011;60907;53.268;8.764;2023-05-20T07:59:07;3.25;;;1.45;;
72791;SDS011;60907;53.268;8.764;2023-05-20T08:01:33;2.25;;;1.02;;
72791;SDS011;60907;53.268;8.764;2023-05-20T08:03:58;2.55;;;1.40;;
72791;SDS011;60907;53.268;8.764;2023-05-20T08:06:24;2.58;;;1.00;;
72791;SDS011;60907;53.268;8.764;2023-05-20T08:08:50;2.25;;;1.10;;
72791;SDS011;60907;53.268;8.764;2023-05-20T08:11:18;4.03;;;1.48;;
72791;SDS011;60907;53.268;8.764;2023-05-20T08:13:45;2.58;;;1.33;;
72791;SDS011;60907;53.268;8.764;2023-05-20T08:16:11;2.38;;;1.73;;
72791;SDS011;60907;53.268;8.764;2023-05-20T08:18:37;2.92;;;1.42;;
72791;SDS011;60907;53.268;8.764;2023-05-20T08:21:03;2.17;;;1.33;;
72791;SDS011;60907;53.268;8.764;2023-05-20T08:23:30;2.35;;;1.73;;
72791;SDS011;60907;53.268;8.764;2023-05-20T08:25:55;2.13;;;1.35;;
72791;SDS011;60907;53.268;8.764;2023-05-20T08:28:21;4.30;;;1.33;;
72791;SDS011;60907;53.268;8.764;2023-05-20T08:30:47;5.05;;;1.70;;
72791;SDS011;60907;53.268;8.764;2023-05-20T08:33:12;2.97;;;1.55;;
72791;SDS011;60907;53.268;8.764;2023-05-20T08:35:38;4.47;;;1.25;;
72791;SDS011;60907;53.268;8.764;2023-05-20T08:38:04;3.25;;;1.55;;
72791;SDS011;60907;53.268;8.764;2023-05-20T08:40:30;4.20;;;1.60;;
72791;SDS011;60907;53.268;8.764;2023-05-20T08:42:58;3.03;;;1.23;;
72791;SDS011;60907;53.268;8.764;2023-05-20T08:47:52;2.40;;;1.33;;
72791;SDS011;60907;53.268;8.764;2023-05-20T08:50:18;3.90;;;1.23;;
72791;SDS011;60907;53.268;8.764;2023-05-20T08:52:44;2.65;;;1.70;;
72791;SDS011;60907;53.268;8.764;2023-05-20T08:55:16;5.28;;;1.55;;
72791;SDS011;60907;53.268;8.764;2023-05-20T08:57:49;3.83;;;1.20;;
72791;SDS011;60907;53.268;8.764;2023-05-20T09:00:15;1.98;;;1.25;;
72791;SDS011;60907;53.268;8.764;2023-05-20T09:02:43;3.08;;;1.48;;
72791;SDS011;60907;53.268;8.764;2023-05-20T09:05:10;2.42;;;1.52;;
72791;SDS011;60907;53.268;8.764;2023-05-20T09:07:35;5.35;;;1.42;;
72791;SDS011;60907;53.268;8.764;2023-05-20T09:10:01;5.32;;;1.50;;
72791;SDS011;60907;53.268;8.764;2023-05-20T09:12:27;5.80;;;1.02;;
72791;SDS011;60907;53.268;8.764;2023-05-20T09:14:52;2.47;;;1.10;;
72791;SDS011;60907;53.268;8.764;2023-05-20T09:17:19;2.53;;;1.00;;
72791;SDS011;60907;53.268;8.764;2023-05-20T09:19:48;1.80;;;1.05;;
72791;SDS011;60907;53.268;8.764;2023-05-20T09:22:26;1.70;;;0.88;;
72791;SDS011;60907;53.268;8.764;2023-05-20T09:24:53;1.95;;;0.85;;
72791;SDS011;60907;53.268;8.764;2023-05-20T09:27:19;3.00;;;1.27;;
72791;SDS011;60907;53.268;8.764;2023-05-20T09:29:48;1.98;;;1.00;;
72791;SDS011;60907;53.268;8.764;2023-05-20T09:32:14;3.75;;;1.38;;
72791;SDS011;60907;53.268;8.764;2023-05-20T09:34:40;1.50;;;0.90;;
72791;SDS011;60907;53.268;8.764;2023-05-20T09:37:06;4.03;;;1.13;;
72791;SDS011;60907;53.268;8.764;2023-05-20T09:39:38;2.13;;;1.02;;
72791;SDS011;60907;53.268;8.764;2023-05-20T09:42:24;2.92;;;1.40;;
72791;SDS011;60907;53.268;8.764;2023-05-20T09:44:55;2.78;;;1.13;;
72791;SDS011;60907;53.268;8.764;2023-05-20T09:47:22;2.58;;;1.15;;
72791;SDS011;60907;53.268;8.764;2023-05-20T09:49:49;3.70;;;1.33;;
72791;SDS011;60907;53.268;8.764;2023-05-20T09:52:16;1.65;;;1.15;;
72791;SDS011;60907;53.268;8.764;2023-05-20T09:54:42;4.30;;;1.20;;
72791;SDS011;60907;53.268;8.764;2023-05-20T09:57:08;4.40;;;1.45;;
72791;SDS011;60907;53.268;8.764;2023-05-20T09:59:36;2.03;;;0.93;;
72791;SDS011;60907;53.268;8.764;2023-05-20T10:02:02;3.35;;;1.00;;
72791;SDS011;60907;53.268;8.764;2023-05-20T10:04:29;6.40;;;1.20;;
72791;SDS011;60907;53.268;8.764;2023-05-20T10:09:53;2.55;;;1.02;;
72791;SDS011;60907;53.268;8.764;2023-05-20T10:18:20;3.35;;;1.15;;
72791;SDS011;60907;53.268;8.764;2023-05-20T10:20:25;4.18;;;1.60;;
72791;SDS011;60907;53.268;8.764;2023-05-20T10:22:57;4.82;;;1.02;;
72791;SDS011;60907;53.268;8.764;2023-05-20T10:25:26;5.28;;;0.90;;
72791;SDS011;60907;53.268;8.764;2023-05-20T10:28:02;3.75;;;0.95;;
72791;SDS011;60907;53.268;8.764;2023-05-20T10:30:29;2.67;;;0.98;;
72791;SDS011;60907;53.268;8.764;2023-05-20T10:32:56;2.03;;;0.73;;
72791;SDS011;60907;53.268;8.764;2023-05-20T10:35:24;5.20;;;1.10;;
72791;SDS011;60907;53.268;8.764;2023-05-20T10:37:50;3.67;;;1.02;;
72791;SDS011;60907;53.268;8.764;2023-05-20T10:40:19;3.63;;;1.25;;
72791;SDS011;60907;53.268;8.764;2023-05-20T10:42:46;4.35;;;0.93;;
72791;SDS011;60907;53.268;8.764;2023-05-20T10:45:23;1.73;;;1.00;;
72791;SDS011;60907;53.268;8.764;2023-05-20T10:47:56;4.47;;;1.00;;
72791;SDS011;60907;53.268;8.764;2023-05-20T10:50:25;3.67;;;0.93;;
72791;SDS011;60907;53.268;8.764;2023-05-20T10:53:01;7.90;;;1.50;;
72791;SDS011;60907;53.268;8.764;2023-05-20T10:55:34;2.85;;;0.88;;
72791;SDS011;60907;53.268;8.764;2023-05-20T10:58:03;1.50;;;0.88;;
72791;SDS011;60907;53.268;8.764;2023-05-20T11:00:30;5.47;;;1.23;;
72791;SDS011;60907;53.268;8.764;2023-05-20T11:02:55;3.30;;;0.90;;
72791;SDS011;60907;53.268;8.764;2023-05-20T11:05:21;4.28;;;0.90;;
72791;SDS011;60907;53.268;8.764;2023-05-20T11:07:47;1.75;;;0.82;;
72791;SDS011;60907;53.268;8.764;2023-05-20T11:10:13;1.52;;;0.93;;
72791;SDS011;60907;53.268;8.764;2023-05-20T11:12:39;3.10;;;1.15;;
72791;SDS011;60907;53.268;8.764;2023-05-20T11:15:04;1.33;;;0.90;;
72791;SDS011;60907;53.268;8.764;2023-05-20T11:17:30;2.85;;;0.90;;
72791;SDS011;60907;53.268;8.764;2023-05-20T11:19:56;1.48;;;0.88;;
72791;SDS011;60907;53.268;8.764;2023-05-20T11:22:25;1.95;;;0.90;;
72791;SDS011;60907;53.268;8.764;2023-05-20T11:24:50;2.08;;;1.00;;
72791;SDS011;60907;53.268;8.764;2023-05-20T11:27:16;2.80;;;1.38;;
72791;SDS011;60907;53.268;8.764;2023-05-20T11:29:41;8.18;;;1.13;;
72791;SDS011;60907;53.268;8.764;2023-05-20T11:32:07;1.77;;;0.93;;
72791;SDS011;60907;53.268;8.764;2023-05-20T11:34:33;2.40;;;1.08;;
72791;SDS011;60907;53.268;8.764;2023-05-20T11:37:00;2.55;;;1.25;;
72791;SDS011;60907;53.268;8.764;2023-05-20T11:39:28;1.90;;;1.00;;
72791;SDS011;60907;53.268;8.764;2023-05-20T11:41:54;4.82;;;1.02;;
72791;SDS011;60907;53.268;8.764;2023-05-20T11:44:20;1.58;;;0.90;;
72791;SDS011;60907;53.268;8.764;2023-05-20T11:46:46;1.55;;;0.90;;
72791;SDS011;60907;53.268;8.764;2023-05-20T11:49:12;1.42;;;0.73;;
72791;SDS011;60907;53.268;8.764;2023-05-20T11:51:38;1.67;;;0.95;;
72791;SDS011;60907;53.268;8.764;2023-05-20T11:54:06;2.63;;;0.85;;
72791;SDS011;60907;53.268;8.764;2023-05-20T11:56:32;2.90;;;1.00;;
72791;SDS011;60907;53.268;8.764;2023-05-20T11:59:00;2.15;;;0.70;;
72791;SDS011;60907;53.268;8.764;2023-05-20T12:01:26;3.80;;;1.02;;
72791;SDS011;60907;53.268;8.764;2023-05-20T12:03:53;3.35;;;1.13;;
72791;SDS011;60907;53.268;8.764;2023-05-20T12:06:19;1.33;;;0.73;;
72791;SDS011;60907;53.268;8.764;2023-05-20T12:08:44;1.40;;;0.95;;
72791;SDS011;60907;53.268;8.764;2023-05-20T12:11:11;0.98;;;0.70;;
72791;SDS011;60907;53.268;8.764;2023-05-20T12:13:37;3.15;;;0.95;;
72791;SDS011;60907;53.268;8.764;2023-05-20T12:16:02;1.40;;;0.70;;
72791;SDS011;60907;53.268;8.764;2023-05-20T12:18:30;4.72;;;0.90;;
72791;SDS011;60907;53.268;8.764;2023-05-20T12:20:58;2.67;;;1.10;;
72791;SDS011;60907;53.268;8.764;2023-05-20T12:23:24;2.28;;;1.15;;
72791;SDS011;60907;53.268;8.764;2023-05-20T12:25:50;1.30;;;0.82;;
72791;SDS011;60907;53.268;8.764;2023-05-20T12:28:15;2.88;;;0.70;;
72791;SDS011;60907;53.268;8.764;2023-05-20T12:30:41;2.33;;;1.08;;
72791;SDS011;60907;53.268;8.764;2023-05-20T12:33:07;1.85;;;0.63;;
72791;SDS011;60907;53.268;8.764;2023-05-20T12:38:02;1.38;;;0.73;;
72791;SDS011;60907;53.268;8.764;2023-05-20T12:40:28;4.05;;;1.00;;
72791;SDS011;60907;53.268;8.764;2023-05-20T12:42:53;1.58;;;0.70;;
72791;SDS011;60907;53.268;8.764;2023-05-20T12:45:19;8.00;;;1.75;;
72791;SDS011;60907;53.268;8.764;2023-05-20T12:47:44;4.75;;;0.63;;
72791;SDS011;60907;53.268;8.764;2023-05-20T12:50:10;3.83;;;0.85;;
72791;SDS011;60907;53.268;8.764;2023-05-20T12:52:35;1.50;;;0.68;;
72791;SDS011;60907;53.268;8.764;2023-05-20T12:55:01;1.17;;;0.75;;
72791;SDS011;60907;53.268;8.764;2023-05-20T12:57:26;2.63;;;0.70;;
72791;SDS011;60907;53.268;8.764;2023-05-20T12:59:52;1.42;;;0.65;;
72791;SDS011;60907;53.268;8.764;2023-05-20T13:02:17;2.03;;;0.73;;
72791;SDS011;60907;53.268;8.764;2023-05-20T13:04:43;2.55;;;0.80;;
72791;SDS011;60907;53.268;8.764;2023-05-20T13:07:08;2.33;;;0.60;;
72791;SDS011;60907;53.268;8.764;2023-05-20T13:09:34;1.38;;;0.65;;
72791;SDS011;60907;53.268;8.764;2023-05-20T13:12:00;2.05;;;0.80;;
72791;SDS011;60907;53.268;8.764;2023-05-20T13:14:26;1.45;;;0.70;;
72791;SDS011;60907;53.268;8.764;2023-05-20T13:16:51;2.35;;;0.63;;
72791;SDS011;60907;53.268;8.764;2023-05-20T13:19:19;2.17;;;0.82;;
72791;SDS011;60907;53.268;8.764;2023-05-20T13:21:46;2.53;;;0.85;;
72791;SDS011;60907;53.268;8.764;2023-05-20T13:24:12;4.32;;;0.90;;
72791;SDS011;60907;53.268;8.764;2023-05-20T13:26:37;1.92;;;0.90;;
72791;SDS011;60907;53.268;8.764;2023-05-20T13:29:03;2.08;;;0.73;;
72791;SDS011;60907;53.268;8.764;2023-05-20T13:31:29;4.07;;;1.98;;
72791;SDS011;60907;53.268;8.764;2023-05-20T13:33:54;3.25;;;0.88;;
72791;SDS011;60907;53.268;8.764;2023-05-20T13:36:23;2.05;;;1.00;;
72791;SDS011;60907;53.268;8.764;2023-05-20T13:38:48;1.92;;;0.70;;
72791;SDS011;60907;53.268;8.764;2023-05-20T13:41:14;2.05;;;0.60;;
72791;SDS011;60907;53.268;8.764;2023-05-20T13:43:40;1.45;;;0.82;;
72791;SDS011;60907;53.268;8.764;2023-05-20T13:46:06;1.80;;;0.73;;
72791;SDS011;60907;53.268;8.764;2023-05-20T13:48:31;2.58;;;1.00;;
72791;SDS011;60907;53.268;8.764;2023-05-20T13:50:57;1.65;;;0.77;;
72791;SDS011;60907;53.268;8.764;2023-05-20T13:53:22;2.42;;;1.00;;
72791;SDS011;60907;53.268;8.764;2023-05-20T13:55:48;4.60;;;1.05;;
72791;SDS011;60907;53.268;8.764;2023-05-20T13:58:13;1.83;;;1.02;;
72791;SDS011;60907;53.268;8.764;2023-05-20T14:00:39;2.80;;;1.10;;
72791;SDS011;60907;53.268;8.764;2023-05-20T14:03:05;4.13;;;1.20;;
72791;SDS011;60907;53.268;8.764;2023-05-20T14:05:33;7.82;;;1.33;;
72791;SDS011;60907;53.268;8.764;2023-05-20T14:07:59;3.78;;;1.02;;
72791;SDS011;60907;53.268;8.764;2023-05-20T14:10:25;2.58;;;1.38;;
72791;SDS011;60907;53.268;8.764;2023-05-20T14:12:55;3.67;;;1.20;;
72791;SDS011;60907;53.268;8.764;2023-05-20T14:15:21;1.75;;;1.10;;
72791;SDS011;60907;53.268;8.764;2023-05-20T14:17:47;5.88;;;1.35;;
72791;SDS011;60907;53.268;8.764;2023-05-20T14:20:12;1.17;;;0.90;;
72791;SDS011;60907;53.268;8.764;2023-05-20T14:22:38;4.72;;;1.10;;
72791;SDS011;60907;53.268;8.764;2023-05-20T14:25:04;2.42;;;1.13;;
72791;SDS011;60907;53.268;8.764;2023-05-20T14:27:30;4.18;;;1.23;;
72791;SDS011;60907;53.268;8.764;2023-05-20T14:29:55;2.78;;;1.20;;
72791;SDS011;60907;53.268;8.764;2023-05-20T14:32:21;2.78;;;1.20;;
72791;SDS011;60907;53.268;8.764;2023-05-20T14:34:46;2.70;;;1.33;;
72791;SDS011;60907;53.268;8.764;2023-05-20T14:37:12;4.70;;;1.20;;
72791;SDS011;60907;53.268;8.764;2023-05-20T14:39:37;4.05;;;1.27;;
72791;SDS011;60907;53.268;8.764;2023-05-20T14:42:03;2.65;;;1.15;;
72791;SDS011;60907;53.268;8.764;2023-05-20T14:44:29;2.15;;;1.15;;
72791;SDS011;60907;53.268;8.764;2023-05-20T14:46:55;3.78;;;1.20;;
72791;SDS011;60907;53.268;8.764;2023-05-20T14:49:20;2.90;;;1.02;;
72791;SDS011;60907;53.268;8.764;2023-05-20T14:51:46;4.30;;;1.02;;
72791;SDS011;60907;53.268;8.764;2023-05-20T14:54:11;1.65;;;0.98;;
72791;SDS011;60907;53.268;8.764;2023-05-20T14:56:38;1.95;;;1.20;;
72791;SDS011;60907;53.268;8.764;2023-05-20T14:59:04;3.70;;;1.10;;